Terminal Aerodrome Forecast
Issued by NWS Charleston, WV

Current Version | Previous Version | Text Only | Print | Product List | Glossary Off
Versions: 1 2 3 4 5 6 7 8 9 10 11 12 13 14 15 16 17 18 19 20 21

000
FTUS41 KRLX 240500
TAFPKB
TAF
KPKB 240525Z 2406/2506 VRB03KT 6SM SHRA BR OVC035
     FM240800 VRB03KT 4SM SHRA BR OVC030
     FM241200 VRB03KT 6SM BR OVC030
     FM241400 15005KT P6SM BKN035
     FM242100 18010G15KT 4SM SHRA BR VCTS BKN035CB
     FM250100 24013G33KT P6SM BKN020=

USA.gov is the U.S. government's official web portal to all federal, state and local government web resources and services.